Terminal Aerodrome Forecast
Issued by NWS

Home | Current Version | Previous Version | Graphics & Text | Print | Product List | Glossary On
Versions: 1 2 3 4 5 6 7 8 9 10 11 12 13 14 15 16 17 18 19 20 21 22 23 24 25 26
000
FTUS43 KFGF 210100 AAA
TAFBJI
TAF AMD
KBJI 210105Z 2101/2124 33011G15KT P6SM -RA BKN009 OVC015
     FM210400 30008KT P6SM SCT070
     FM210900 29007KT P6SM OVC015
     FM212100 31008KT P6SM FEW250=

USA.gov is the U.S. government's official web portal to all federal, state and local government web resources and services.